A- A+ FrançaisEnglishEspañol中国

Services sur Internet Soldes sur Internet Des idées de cadeaux Météo Météo aéro

La météo à : Autours de vous Mont-De-Marsan Tarbes-Lourdes-PyrénéesGrenoble-Le-Versoud Rion-Des-Landes

La météo aéronautique pour les pilotes, la préparation du vol avec les METAR (METeorological Aerodrome Report, message d'observation des conditions météorologiques pour l'aviation) et Les TAF (Terminal Aerodrome Forecast : message de prévision à court terme des conditions météorologiques pour l'aviation). Et les autres ressources comme les VAC (Visual Approch Chart) et les NOTAM (Notice To Airman) pour préprer les vols.

Aéroport Waterford (Irlande) / OACI EIWF/ IATA WAT

L'altitude de l'aéroport Waterford est de 36 m = 118 ft. Il est situé à proximité de Waterford (Irlande). La météo générale à 5 jours est disponible pour Tra Mhor situé à 5.3 km.

METAR de l'aéroport Waterford - EIWF

EIWF 071900Z 23021KT 2000 +RA SCT004 BKN006 10/09 Q1002 R21/1/////

Décodage du METAR de l'aéroport Waterford (IE)

METAR émis par EIWF le samedi 7 décembre 2019 à 19:00 heure TU, il y a 28 minutes.

La visibilité est de 2 km = 1.2 sm.

La température est de 10°C = 50 °F et le point rosée est de 9°C = 48 °F . Ce qui correspond à 94% d'humidité relative.

Le QNH est de 1002 hPa = 29.59 inHg

Vent de 21 kt = 39 km/h, orienté à 230°.

Nuages : Nuages épars à 400 ft = 120 mètres. Couverture nuageuse fragmentée à 600 ft = 180 mètres.

+RA

R21/1/////

TAF de l'aéroport Waterford - EIWF

EIWF 071700Z 0718/0803 22018G28KT 9999 SCT007 BKN015 BECMG 0718/0720 21020G34KT 6000 -DZ SCT003 BKN007 TEMPO 0718/0723 21023G39KT 3000 -RADZ BR BKN003 BECMG 0723/0801 26020G35KT 9999 NSW FEW015 SCT025 PROB40 TEMPO 0801/0803 5000 -SHRA FEW018CB

EIWF 071700Z 0718/0803 22018G28KT 9999 nuages épars à 007 couverture nuageuse fragmentée à 015 devenant 0718/0720 21020G34KT 6000 faible DZ nuages épars à 003 couverture nuageuse fragmentée à 007 temporairement 0718/0723 21023G39KT 3000 faible RADZ brume couverture nuageuse fragmentée à 003 devenant 0723/0801 26020G35KT 9999 NSW quelques nuages à 015 nuages épars à 025 probabilité de 40% d'avoir temporairement 0801/0803 5000 faible SHRA quelques nuages à 018CB

Aéroport à proximité de Waterford

Météo générale à 5 jours à Tra Mhor (5.3 km)Aéroport Moyne (71 km)Aéroport Hacketstown (83 km)Aéroport Kilrush (99 km)Aéroport Cork (104 km)Aéroport Birr (112 km)Aéroport Gowran Grange (114 km)

Vue aérienne de l'aéroport Waterford

NOTAM de l'aéroport Waterford

Les NOTAM sont fournis sans aucune garantie de leur actualité. Le pilote est le seul responsable de la vérification de sa validité avant de l'utiliser opérationnellement pour préparer un vol ou l'utiliser lors de sa navigation.

Pas de NOTAM

Sources des données